sensor_id;sensor_type;location;lat;lon;timestamp;pressure;altitude;pressure_sealevel;temperature;humidity
7586;BME280;12459;42.646;23.292;2023-04-03T00:10:36;93079.63;;;8.68;93.27
7586;BME280;12459;42.646;23.292;2023-04-03T00:25:39;92918.88;;;7.00;97.41
7586;BME280;12459;42.646;23.292;2023-04-03T00:40:43;92965.63;;;7.43;96.77
7586;BME280;12459;42.646;23.292;2023-04-03T00:55:46;93022.28;;;7.50;98.56
7586;BME280;12459;42.646;23.292;2023-04-03T01:10:49;92910.75;;;6.73;99.86
7586;BME280;12459;42.646;23.292;2023-04-03T01:25:54;92866.72;;;6.17;100.00
7586;BME280;12459;42.646;23.292;2023-04-03T01:40:57;93094.47;;;8.04;100.00
7586;BME280;12459;42.646;23.292;2023-04-03T01:55:58;93124.28;;;7.99;100.00
7586;BME280;12459;42.646;23.292;2023-04-03T02:11:00;92991.41;;;7.15;100.00
7586;BME280;12459;42.646;23.292;2023-04-03T02:26:07;93056.50;;;7.14;100.00
7586;BME280;12459;42.646;23.292;2023-04-03T02:41:11;93087.13;;;7.40;100.00
7586;BME280;12459;42.646;23.292;2023-04-03T02:56:13;93001.81;;;6.51;100.00
7586;BME280;12459;42.646;23.292;2023-04-03T03:11:15;93063.22;;;6.81;100.00
7586;BME280;12459;42.646;23.292;2023-04-03T03:26:17;92757.88;;;4.71;100.00
7586;BME280;12459;42.646;23.292;2023-04-03T03:41:19;92899.41;;;6.18;100.00
7586;BME280;12459;42.646;23.292;2023-04-03T03:56:20;92828.69;;;5.68;100.00
7586;BME280;12459;42.646;23.292;2023-04-03T04:11:22;92932.13;;;6.11;100.00
7586;BME280;12459;42.646;23.292;2023-04-03T04:26:24;93047.13;;;6.95;100.00
7586;BME280;12459;42.646;23.292;2023-04-03T04:41:26;93009.38;;;6.56;100.00
7586;BME280;12459;42.646;23.292;2023-04-03T04:56:28;92986.66;;;6.44;100.00
7586;BME280;12459;42.646;23.292;2023-04-03T05:11:30;92977.66;;;6.79;100.00
7586;BME280;12459;42.646;23.292;2023-04-03T05:26:32;93107.59;;;8.25;100.00
7586;BME280;12459;42.646;23.292;2023-04-03T05:41:33;93011.28;;;7.48;100.00
7586;BME280;12459;42.646;23.292;2023-04-03T05:56:35;92848.47;;;7.01;100.00
7586;BME280;12459;42.646;23.292;2023-04-03T06:11:37;93056.91;;;8.83;100.00
7586;BME280;12459;42.646;23.292;2023-04-03T06:26:39;93083.97;;;9.35;100.00
7586;BME280;12459;42.646;23.292;2023-04-03T06:41:41;93072.09;;;9.40;98.86
7586;BME280;12459;42.646;23.292;2023-04-03T06:56:43;92893.06;;;7.89;96.90
7586;BME280;12459;42.646;23.292;2023-04-03T07:11:45;92975.78;;;8.73;99.34
7586;BME280;12459;42.646;23.292;2023-04-03T07:26:50;93070.72;;;9.75;99.12
7586;BME280;12459;42.646;23.292;2023-04-03T07:41:53;93067.31;;;10.53;96.20
7586;BME280;12459;42.646;23.292;2023-04-03T07:56:56;92938.34;;;9.99;93.05
7586;BME280;12459;42.646;23.292;2023-04-03T08:11:58;93060.47;;;10.52;90.89
7586;BME280;12459;42.646;23.292;2023-04-03T08:27:00;92835.28;;;9.39;89.93
7586;BME280;12459;42.646;23.292;2023-04-03T08:42:05;92635.66;;;8.44;88.00
7586;BME280;12459;42.646;23.292;2023-04-03T08:57:11;93014.34;;;11.42;88.98
7586;BME280;12459;42.646;23.292;2023-04-03T09:12:18;92992.38;;;11.93;84.57
7586;BME280;12459;42.646;23.292;2023-04-03T09:27:22;92554.25;;;9.33;81.96
7586;BME280;12459;42.646;23.292;2023-04-03T09:42:25;92802.66;;;11.61;72.57
7586;BME280;12459;42.646;23.292;2023-04-03T09:57:32;92835.31;;;12.48;70.55
7586;BME280;12459;42.646;23.292;2023-04-03T10:12:34;92689.53;;;11.49;70.28
7586;BME280;12459;42.646;23.292;2023-04-03T10:27:49;92926.69;;;12.73;69.90
7586;BME280;12459;42.646;23.292;2023-04-03T11:13:36;92927.28;;;12.01;84.13
7586;BME280;12459;42.646;23.292;2023-04-03T11:28:39;92746.63;;;10.38;100.00
7586;BME280;12459;42.646;23.292;2023-04-03T11:43:55;92879.38;;;10.71;100.00
7586;BME280;12459;42.646;23.292;2023-04-03T12:14:16;92900.78;;;10.39;100.00
7586;BME280;12459;42.646;23.292;2023-04-03T12:44:42;92838.50;;;10.67;100.00
7586;BME280;12459;42.646;23.292;2023-04-03T12:59:47;92870.50;;;10.58;100.00
7586;BME280;12459;42.646;23.292;2023-04-03T13:14:55;92807.84;;;9.71;100.00
7586;BME280;12459;42.646;23.292;2023-04-03T13:29:59;92859.56;;;10.00;100.00
7586;BME280;12459;42.646;23.292;2023-04-03T13:45:24;92853.59;;;10.29;100.00
7586;BME280;12459;42.646;23.292;2023-04-03T14:01:00;92742.84;;;8.82;100.00
7586;BME280;12459;42.646;23.292;2023-04-03T14:15:57;92777.97;;;9.20;100.00
7586;BME280;12459;42.646;23.292;2023-04-03T14:31:15;92753.41;;;9.25;100.00
7586;BME280;12459;42.646;23.292;2023-04-03T14:46:22;92816.81;;;9.97;100.00
7586;BME280;12459;42.646;23.292;2023-04-03T15:01:29;92685.72;;;9.12;100.00
7586;BME280;12459;42.646;23.292;2023-04-03T15:16:31;92788.59;;;9.59;100.00
7586;BME280;12459;42.646;23.292;2023-04-03T15:31:33;92791.97;;;9.64;100.00
7586;BME280;12459;42.646;23.292;2023-04-03T15:46:35;92527.34;;;8.23;100.00
7586;BME280;12459;42.646;23.292;2023-04-03T16:01:37;92762.84;;;9.49;100.00
7586;BME280;12459;42.646;23.292;2023-04-03T16:16:40;92694.69;;;8.85;100.00
7586;BME280;12459;42.646;23.292;2023-04-03T16:31:42;92261.19;;;5.91;100.00
7586;BME280;12459;42.646;23.292;2023-04-03T16:46:45;92500.28;;;8.05;100.00
7586;BME280;12459;42.646;23.292;2023-04-03T17:01:49;92391.53;;;7.60;100.00
7586;BME280;12459;42.646;23.292;2023-04-03T17:16:51;92431.72;;;7.49;100.00
7586;BME280;12459;42.646;23.292;2023-04-03T17:31:53;92507.25;;;8.18;100.00
7586;BME280;12459;42.646;23.292;2023-04-03T17:46:55;92370.97;;;7.77;100.00
7586;BME280;12459;42.646;23.292;2023-04-03T18:01:57;92581.34;;;9.19;100.00
7586;BME280;12459;42.646;23.292;2023-04-03T18:16:59;92593.28;;;9.47;100.00
7586;BME280;12459;42.646;23.292;2023-04-03T18:32:01;92537.09;;;8.85;100.00
7586;BME280;12459;42.646;23.292;2023-04-03T18:47:07;92324.31;;;7.68;100.00
7586;BME280;12459;42.646;23.292;2023-04-03T19:02:09;92233.34;;;6.78;100.00
7586;BME280;12459;42.646;23.292;2023-04-03T19:17:11;92451.13;;;8.58;100.00
7586;BME280;12459;42.646;23.292;2023-04-03T19:32:13;92260.53;;;6.50;100.00
7586;BME280;12459;42.646;23.292;2023-04-03T19:47:15;92190.97;;;7.03;100.00
7586;BME280;12459;42.646;23.292;2023-04-03T20:02:18;92173.50;;;7.02;100.00
7586;BME280;12459;42.646;23.292;2023-04-03T20:17:21;92150.44;;;6.44;100.00
7586;BME280;12459;42.646;23.292;2023-04-03T20:32:23;92250.94;;;7.28;100.00
7586;BME280;12459;42.646;23.292;2023-04-03T20:47:25;92325.91;;;8.47;100.00
7586;BME280;12459;42.646;23.292;2023-04-03T21:02:30;92408.91;;;8.69;100.00
7586;BME280;12459;42.646;23.292;2023-04-03T21:32:36;92263.56;;;7.92;100.00
7586;BME280;12459;42.646;23.292;2023-04-03T21:47:38;92004.34;;;6.49;100.00
7586;BME280;12459;42.646;23.292;2023-04-03T22:02:40;92238.84;;;8.37;100.00
7586;BME280;12459;42.646;23.292;2023-04-03T22:17:42;92090.19;;;6.86;100.00
7586;BME280;12459;42.646;23.292;2023-04-03T22:32:43;92004.59;;;6.38;100.00
7586;BME280;12459;42.646;23.292;2023-04-03T22:47:45;91996.19;;;6.72;100.00
7586;BME280;12459;42.646;23.292;2023-04-03T23:02:47;92120.38;;;8.18;100.00
7586;BME280;12459;42.646;23.292;2023-04-03T23:17:49;92217.81;;;8.39;100.00
7586;BME280;12459;42.646;23.292;2023-04-03T23:32:50;92273.41;;;9.40;100.00
7586;BME280;12459;42.646;23.292;2023-04-03T23:47:52;92141.22;;;8.78;100.00
